createdAt,value
2018-10-17T00:01:58.404Z,8.98
2018-10-17T00:04:27.572Z,8.97
2018-10-17T00:06:56.761Z,8.97
2018-10-17T00:09:25.924Z,8.99
2018-10-17T00:11:55.095Z,8.98
2018-10-17T00:14:24.233Z,8.96
2018-10-17T00:16:53.456Z,8.94
2018-10-17T00:19:22.602Z,8.92
2018-10-17T00:21:51.750Z,8.84
2018-10-17T00:24:20.940Z,8.73
2018-10-17T00:26:50.309Z,8.69
2018-10-17T00:29:19.460Z,8.69
2018-10-17T00:31:48.641Z,8.68
2018-10-17T00:34:17.770Z,8.69
2018-10-17T00:36:47.056Z,8.67
2018-10-17T00:39:16.194Z,8.64
2018-10-17T00:41:45.363Z,8.60
2018-10-17T00:44:14.513Z,8.55
2018-10-17T00:46:43.677Z,8.48
2018-10-17T00:49:12.946Z,8.43
2018-10-17T00:51:42.033Z,8.39
2018-10-17T00:54:11.246Z,8.43
2018-10-17T00:56:40.498Z,8.43
2018-10-17T00:59:11.852Z,8.45
2018-10-17T01:01:40.992Z,8.48
2018-10-17T01:04:10.349Z,8.51
2018-10-17T01:06:40.051Z,8.47
2018-10-17T01:09:11.794Z,8.45
2018-10-17T01:11:41.301Z,8.40
2018-10-17T01:14:10.814Z,8.36
2018-10-17T01:16:39.962Z,8.32
2018-10-17T01:19:09.311Z,8.23
2018-10-17T01:21:38.399Z,8.15
2018-10-17T01:24:07.549Z,8.08
2018-10-17T01:26:36.705Z,8.03
2018-10-17T01:29:06.208Z,7.98
2018-10-17T01:31:35.355Z,7.91
2018-10-17T01:34:04.640Z,7.80
2018-10-17T01:36:33.817Z,7.74
2018-10-17T01:39:03.799Z,7.73
2018-10-17T01:41:32.932Z,7.73
2018-10-17T01:44:02.089Z,7.75
2018-10-17T01:46:31.277Z,7.80
2018-10-17T01:49:00.485Z,7.83
2018-10-17T01:51:29.863Z,7.85
2018-10-17T01:53:59.042Z,7.88
2018-10-17T01:56:28.181Z,7.87
2018-10-17T01:58:57.343Z,7.89
2018-10-17T02:01:26.535Z,7.86
2018-10-17T02:03:55.653Z,7.83
2018-10-17T02:06:24.807Z,7.83
2018-10-17T02:08:53.946Z,7.77
2018-10-17T02:11:23.118Z,7.79
2018-10-17T02:13:52.250Z,7.78
2018-10-17T02:16:21.406Z,7.79
2018-10-17T02:18:50.541Z,7.81
2018-10-17T02:21:19.673Z,7.78
2018-10-17T02:23:48.830Z,7.69
2018-10-17T02:26:17.974Z,7.64
2018-10-17T02:28:47.168Z,7.61
2018-10-17T02:31:16.404Z,7.55
2018-10-17T02:33:45.460Z,7.52
2018-10-17T02:36:14.634Z,7.49
2018-10-17T02:38:43.809Z,7.43
2018-10-17T02:41:13.557Z,7.34
2018-10-17T02:43:42.605Z,7.26
2018-10-17T02:46:11.785Z,7.27
2018-10-17T02:48:40.964Z,7.28
2018-10-17T02:51:10.155Z,7.28
2018-10-17T02:53:39.306Z,7.25
2018-10-17T02:56:08.454Z,7.18
2018-10-17T02:58:37.581Z,7.12
2018-10-17T03:01:06.857Z,7.10
2018-10-17T03:03:36.074Z,7.11
2018-10-17T03:06:05.379Z,7.13
2018-10-17T03:08:34.582Z,7.13
2018-10-17T03:11:03.761Z,7.11
2018-10-17T03:13:32.866Z,7.10
2018-10-17T03:16:02.019Z,7.08
2018-10-17T03:18:31.171Z,7.08
2018-10-17T03:21:00.312Z,7.06
2018-10-17T03:23:29.531Z,7.03
2018-10-17T03:25:58.814Z,7.00
2018-10-17T03:28:28.554Z,7.00
2018-10-17T03:30:58.006Z,7.02
2018-10-17T03:33:27.053Z,7.02
2018-10-17T03:35:56.264Z,7.00
2018-10-17T03:38:25.394Z,7.01
2018-10-17T03:40:54.609Z,6.98
2018-10-17T03:43:23.715Z,6.90
2018-10-17T03:45:52.899Z,6.89
2018-10-17T03:48:22.050Z,6.89
2018-10-17T03:50:51.228Z,6.90
2018-10-17T03:53:20.465Z,6.87
2018-10-17T03:55:49.633Z,6.87
2018-10-17T03:58:18.809Z,6.86
2018-10-17T04:00:47.969Z,6.86
2018-10-17T04:03:17.143Z,6.84
2018-10-17T04:05:46.338Z,6.83
2018-10-17T04:08:15.472Z,6.78
2018-10-17T04:10:44.694Z,6.74
2018-10-17T04:13:13.951Z,6.74
2018-10-17T04:15:43.079Z,6.73
2018-10-17T04:18:12.258Z,6.71
2018-10-17T04:20:41.487Z,6.69
2018-10-17T04:23:10.686Z,6.67
2018-10-17T04:25:39.826Z,6.66
2018-10-17T04:28:08.991Z,6.65
2018-10-17T04:30:38.161Z,6.64
2018-10-17T04:33:07.562Z,6.60
2018-10-17T04:35:36.812Z,6.53
2018-10-17T04:38:06.056Z,6.51
2018-10-17T04:40:35.210Z,6.44
2018-10-17T04:43:04.447Z,6.44
2018-10-17T04:45:33.603Z,6.43
2018-10-17T04:48:02.764Z,6.47
2018-10-17T04:50:31.947Z,6.45
2018-10-17T04:53:01.151Z,6.46
2018-10-17T04:55:30.329Z,6.46
2018-10-17T04:57:59.498Z,6.46
2018-10-17T05:00:28.907Z,6.45
2018-10-17T05:02:58.195Z,6.41
2018-10-17T05:05:27.347Z,6.37
2018-10-17T05:07:56.561Z,6.35
2018-10-17T05:10:25.738Z,6.35
2018-10-17T05:12:54.979Z,6.33
2018-10-17T05:15:24.242Z,6.37
2018-10-17T05:17:53.856Z,6.35
2018-10-17T05:20:23.009Z,6.34
2018-10-17T05:22:52.212Z,6.35
2018-10-17T05:25:21.408Z,6.34
2018-10-17T05:27:50.554Z,6.27
2018-10-17T05:30:19.797Z,6.32
2018-10-17T05:32:49.099Z,6.31
2018-10-17T05:35:18.281Z,6.35
2018-10-17T05:37:47.741Z,6.40
2018-10-17T05:40:16.790Z,6.45
2018-10-17T05:42:45.964Z,6.46
2018-10-17T05:45:15.399Z,6.49
2018-10-17T05:47:44.581Z,6.45
2018-10-17T05:50:13.752Z,6.45
2018-10-17T05:52:42.934Z,6.46
2018-10-17T05:55:12.200Z,6.48
2018-10-17T05:57:41.333Z,6.51
2018-10-17T06:00:10.575Z,6.53
2018-10-17T06:02:39.818Z,6.55
2018-10-17T06:05:09.572Z,6.54
2018-10-17T06:07:38.740Z,6.51
2018-10-17T06:10:09.297Z,6.50
2018-10-17T06:12:38.382Z,6.51
2018-10-17T06:15:07.922Z,6.51
2018-10-17T06:17:37.086Z,6.48
2018-10-17T06:20:06.860Z,6.49
2018-10-17T06:22:36.096Z,6.47
2018-10-17T06:25:05.936Z,6.50
2018-10-17T06:27:35.130Z,6.54
2018-10-17T06:30:04.408Z,6.61
2018-10-17T06:32:33.604Z,6.66
2018-10-17T06:35:02.841Z,6.74
2018-10-17T06:37:32.044Z,6.80
2018-10-17T06:40:01.210Z,6.86
2018-10-17T06:42:30.386Z,6.93
2018-10-17T06:44:59.736Z,7.04
2018-10-17T06:47:28.925Z,7.14
2018-10-17T06:49:58.072Z,7.24
2018-10-17T06:52:27.300Z,7.33
2018-10-17T06:54:56.601Z,7.41
2018-10-17T06:57:25.722Z,7.51
2018-10-17T06:59:54.885Z,7.54
2018-10-17T07:02:24.142Z,7.65
2018-10-17T07:04:53.296Z,7.79
2018-10-17T07:07:22.502Z,7.90
2018-10-17T07:09:52.068Z,8.06
2018-10-17T07:12:21.287Z,8.27
2018-10-17T07:14:50.474Z,8.45
2018-10-17T07:17:19.684Z,8.59
2018-10-17T07:19:48.908Z,8.72
2018-10-17T07:22:18.133Z,8.83
2018-10-17T07:24:47.273Z,8.99
2018-10-17T07:27:16.491Z,9.17
2018-10-17T07:29:45.993Z,9.33
2018-10-17T07:32:15.103Z,9.46
2018-10-17T07:34:44.326Z,9.56
2018-10-17T07:37:13.577Z,9.64
2018-10-17T07:39:42.858Z,9.63
2018-10-17T07:42:12.139Z,9.65
2018-10-17T07:44:41.274Z,9.75
2018-10-17T07:47:10.548Z,9.85
2018-10-17T07:49:39.686Z,9.93
2018-10-17T07:52:08.916Z,10.14
2018-10-17T07:54:38.158Z,10.24
2018-10-17T07:57:07.939Z,10.33
2018-10-17T07:59:37.204Z,10.58
2018-10-17T08:02:06.413Z,10.76
2018-10-17T08:04:35.640Z,11.08
2018-10-17T08:07:05.595Z,11.22
2018-10-17T08:09:34.945Z,11.19
2018-10-17T08:12:04.804Z,11.34
2018-10-17T08:14:34.868Z,11.40
2018-10-17T08:17:04.238Z,11.43
2018-10-17T08:19:33.465Z,11.48
2018-10-17T08:22:02.647Z,11.47
2018-10-17T08:24:31.951Z,11.66
2018-10-17T08:27:01.261Z,11.77
2018-10-17T08:29:30.483Z,11.69
2018-10-17T08:31:59.774Z,11.97
2018-10-17T08:34:29.000Z,12.23
2018-10-17T08:36:58.380Z,12.58
2018-10-17T08:39:27.466Z,12.95
2018-10-17T08:41:56.646Z,12.91
2018-10-17T08:44:25.884Z,12.67
2018-10-17T08:46:55.158Z,12.96
2018-10-17T08:49:24.404Z,13.30
2018-10-17T08:51:53.614Z,13.56
2018-10-17T08:54:22.986Z,13.87
2018-10-17T08:56:52.194Z,13.82
2018-10-17T08:59:21.435Z,13.89
2018-10-17T09:01:50.785Z,13.93
2018-10-17T09:04:19.989Z,13.76
2018-10-17T09:06:49.276Z,14.00
2018-10-17T09:09:18.574Z,14.26
2018-10-17T09:11:47.755Z,14.42
2018-10-17T09:14:17.030Z,14.77
2018-10-17T09:16:46.713Z,14.97
2018-10-17T09:19:15.865Z,15.04
2018-10-17T09:21:45.733Z,15.00
2018-10-17T09:24:14.862Z,14.95
2018-10-17T09:26:43.955Z,15.08
2018-10-17T09:29:13.203Z,15.10
2018-10-17T09:31:42.512Z,15.37
2018-10-17T09:34:11.754Z,15.57
2018-10-17T09:36:40.892Z,15.73
2018-10-17T09:39:11.641Z,15.72
2018-10-17T09:41:41.055Z,15.71
2018-10-17T09:44:10.204Z,16.02
2018-10-17T09:46:39.490Z,16.00
2018-10-17T09:49:09.030Z,16.13
2018-10-17T09:51:38.191Z,15.93
2018-10-17T09:54:07.549Z,15.78
2018-10-17T09:56:36.742Z,16.03
2018-10-17T09:59:05.924Z,15.95
2018-10-17T10:01:40.465Z,15.83
2018-10-17T10:04:09.748Z,16.13
2018-10-17T10:06:39.053Z,16.14
2018-10-17T10:09:09.505Z,16.49
2018-10-17T10:11:39.170Z,16.61
2018-10-17T10:14:08.510Z,16.41
2018-10-17T10:16:38.043Z,16.43
2018-10-17T10:19:07.732Z,16.67
2018-10-17T10:21:37.609Z,16.83
2018-10-17T10:24:07.029Z,16.48
2018-10-17T10:26:36.800Z,16.65
2018-10-17T10:29:06.202Z,16.76
2018-10-17T10:31:35.768Z,16.88
2018-10-17T10:34:05.627Z,17.00
2018-10-17T10:36:35.101Z,17.15
2018-10-17T10:39:06.882Z,17.51
2018-10-17T10:41:37.023Z,17.14
2018-10-17T10:44:06.678Z,17.32
2018-10-17T10:46:36.280Z,17.56
2018-10-17T10:49:06.252Z,17.18
2018-10-17T10:51:36.149Z,17.38
2018-10-17T10:54:05.750Z,17.51
2018-10-17T10:56:35.026Z,17.81
2018-10-17T10:59:04.437Z,17.84
2018-10-17T11:01:34.222Z,17.92
2018-10-17T11:04:04.187Z,17.70
2018-10-17T11:06:33.579Z,18.00
2018-10-17T11:09:03.793Z,18.32
2018-10-17T11:11:33.033Z,18.51
2018-10-17T11:14:02.418Z,18.59
2018-10-17T11:16:31.548Z,18.62
2018-10-17T11:19:02.201Z,18.49
2018-10-17T11:21:31.652Z,18.61
2018-10-17T11:24:02.787Z,18.84
2018-10-17T11:26:31.935Z,19.12
2018-10-17T11:29:01.172Z,19.40
2018-10-17T11:31:30.719Z,19.14
2018-10-17T11:33:59.796Z,19.16
2018-10-17T11:36:28.946Z,18.95
2018-10-17T11:38:58.261Z,18.92
2018-10-17T11:41:27.506Z,18.75
2018-10-17T11:43:56.651Z,18.75
2018-10-17T11:46:26.284Z,18.87
2018-10-17T11:48:55.453Z,18.99
2018-10-17T11:51:24.644Z,19.13
2018-10-17T11:53:53.958Z,18.98
2018-10-17T11:56:23.192Z,18.99
2018-10-17T11:58:52.497Z,18.99
2018-10-17T12:01:21.718Z,18.87
2018-10-17T12:03:51.699Z,18.97
2018-10-17T12:06:20.781Z,19.01
2018-10-17T12:08:49.953Z,19.17
2018-10-17T12:11:19.193Z,19.34
2018-10-17T12:13:48.428Z,19.39
2018-10-17T12:16:17.621Z,19.32
2018-10-17T12:18:46.781Z,19.59
2018-10-17T12:21:15.998Z,19.66
2018-10-17T12:23:45.251Z,19.60
2018-10-17T12:26:14.417Z,19.53
2018-10-17T12:28:43.632Z,19.43
2018-10-17T12:31:12.855Z,19.52
2018-10-17T12:33:42.858Z,19.48
2018-10-17T12:36:12.044Z,19.45
2018-10-17T12:38:41.243Z,19.46
2018-10-17T12:41:10.663Z,19.42
2018-10-17T12:43:41.724Z,19.39
2018-10-17T12:46:10.901Z,19.35
2018-10-17T12:48:40.198Z,19.44
2018-10-17T12:51:09.517Z,19.42
2018-10-17T12:53:38.778Z,19.43
2018-10-17T12:56:08.015Z,19.47
2018-10-17T12:58:37.274Z,19.43
2018-10-17T13:01:09.784Z,19.49
2018-10-17T13:03:39.033Z,19.34
2018-10-17T13:06:08.393Z,19.31
2018-10-17T13:08:37.742Z,19.34
2018-10-17T13:11:07.283Z,19.33
2018-10-17T13:13:36.635Z,19.43
2018-10-17T13:16:05.862Z,19.43
2018-10-17T13:18:35.779Z,19.56
2018-10-17T13:21:05.030Z,19.61
2018-10-17T13:23:34.246Z,19.59
2018-10-17T13:26:03.526Z,19.59
2018-10-17T13:28:32.681Z,19.68
2018-10-17T13:31:01.880Z,19.55
2018-10-17T13:33:31.050Z,19.42
2018-10-17T13:36:00.263Z,19.46
2018-10-17T13:38:29.426Z,19.60
2018-10-17T13:40:58.617Z,19.57
2018-10-17T13:43:27.779Z,19.49
2018-10-17T13:45:56.960Z,19.45
2018-10-17T13:48:26.124Z,19.49
2018-10-17T13:50:55.328Z,19.47
2018-10-17T13:53:24.468Z,19.45
2018-10-17T13:55:53.655Z,19.46
2018-10-17T13:58:22.933Z,19.36
2018-10-17T14:00:52.098Z,19.27
2018-10-17T14:03:21.730Z,19.22
2018-10-17T14:05:50.871Z,19.17
2018-10-17T14:08:20.051Z,19.17
2018-10-17T14:10:49.271Z,19.18
2018-10-17T14:13:18.481Z,19.10
2018-10-17T14:15:47.642Z,19.14
2018-10-17T14:18:16.911Z,19.01
2018-10-17T14:20:45.993Z,19.03
2018-10-17T14:23:15.231Z,18.97
2018-10-17T14:25:44.410Z,18.97
2018-10-17T14:28:13.608Z,18.91
2018-10-17T14:30:42.763Z,18.92
2018-10-17T14:33:11.976Z,18.87
2018-10-17T14:35:41.137Z,18.84
2018-10-17T14:38:10.341Z,18.76
2018-10-17T14:40:39.527Z,18.65
2018-10-17T14:43:08.874Z,18.57
2018-10-17T14:45:38.075Z,18.57
2018-10-17T14:48:07.447Z,18.51
2018-10-17T14:50:36.494Z,18.48
2018-10-17T14:53:06.180Z,18.51
2018-10-17T14:55:35.307Z,18.38
2018-10-17T14:58:04.479Z,18.33
2018-10-17T15:00:33.655Z,18.32
2018-10-17T15:03:02.967Z,18.23
2018-10-17T15:05:32.058Z,18.09
2018-10-17T15:08:01.519Z,17.98
2018-10-17T15:10:30.846Z,17.99
2018-10-17T15:12:59.859Z,17.94
2018-10-17T15:15:29.014Z,17.81
2018-10-17T15:17:58.273Z,17.73
2018-10-17T15:20:27.458Z,17.70
2018-10-17T15:22:56.914Z,17.64
2018-10-17T15:25:26.061Z,17.67
2018-10-17T15:27:55.242Z,17.60
2018-10-17T15:30:24.629Z,17.56
2018-10-17T15:32:53.930Z,17.53
2018-10-17T15:35:23.068Z,17.38
2018-10-17T15:37:52.245Z,17.30
2018-10-17T15:40:21.416Z,17.20
2018-10-17T15:42:50.591Z,17.25
2018-10-17T15:45:19.826Z,17.25
2018-10-17T15:47:48.994Z,17.13
2018-10-17T15:50:18.145Z,17.07
2018-10-17T15:52:47.359Z,17.03
2018-10-17T15:55:16.553Z,16.89
2018-10-17T15:57:45.711Z,16.74
2018-10-17T16:00:15.091Z,16.63
2018-10-17T16:02:44.317Z,16.53
2018-10-17T16:05:13.526Z,16.42
2018-10-17T16:07:42.750Z,16.32
2018-10-17T16:10:11.905Z,16.19
2018-10-17T16:12:41.231Z,16.21
2018-10-17T16:15:10.935Z,16.13
2018-10-17T16:17:40.186Z,16.08
2018-10-17T16:20:11.172Z,16.03
2018-10-17T16:22:40.582Z,15.91
2018-10-17T16:25:10.122Z,15.81
2018-10-17T16:27:39.314Z,15.72
2018-10-17T16:30:10.623Z,15.61
2018-10-17T16:32:39.817Z,15.54
2018-10-17T16:35:09.617Z,15.47
2018-10-17T16:37:39.344Z,15.35
2018-10-17T16:40:09.746Z,15.24
2018-10-17T16:42:39.015Z,15.10
2018-10-17T16:45:09.615Z,14.86
2018-10-17T16:47:38.845Z,14.87
2018-10-17T16:50:08.093Z,14.79
2018-10-17T16:52:37.221Z,14.72
2018-10-17T16:55:07.765Z,14.58
2018-10-17T16:57:37.222Z,14.49
2018-10-17T17:00:08.094Z,14.43
2018-10-17T17:02:37.328Z,14.37
2018-10-17T17:05:11.081Z,14.29
2018-10-17T17:07:40.541Z,14.26
2018-10-17T17:10:10.595Z,14.22
2018-10-17T17:12:39.887Z,14.19
2018-10-17T17:15:09.511Z,14.15
2018-10-17T17:17:38.734Z,14.09
2018-10-17T17:20:09.773Z,14.05
2018-10-17T17:22:39.511Z,13.98
2018-10-17T17:25:08.809Z,13.93
2018-10-17T17:27:38.262Z,13.91
2018-10-17T17:30:12.257Z,13.87
2018-10-17T17:32:41.379Z,13.84
2018-10-17T17:35:10.667Z,13.79
2018-10-17T17:37:39.828Z,13.74
2018-10-17T17:40:10.706Z,13.72
2018-10-17T17:42:39.852Z,13.70
2018-10-17T17:45:09.678Z,13.61
2018-10-17T17:47:38.991Z,13.57
2018-10-17T17:50:08.912Z,13.53
2018-10-17T17:52:38.721Z,13.48
2018-10-17T17:55:09.123Z,13.41
2018-10-17T17:57:38.529Z,13.34
2018-10-17T18:00:08.251Z,13.28
2018-10-17T18:02:40.484Z,13.16
2018-10-17T18:05:09.875Z,13.10
2018-10-17T18:07:42.270Z,13.05
2018-10-17T18:10:11.498Z,13.02
2018-10-17T18:12:40.598Z,12.96
2018-10-17T18:15:09.867Z,12.85
2018-10-17T18:17:39.080Z,12.74
2018-10-17T18:20:08.422Z,12.62
2018-10-17T18:22:38.144Z,12.54
2018-10-17T18:25:07.757Z,12.48
2018-10-17T18:27:37.315Z,12.42
2018-10-17T18:30:06.783Z,12.38
2018-10-17T18:32:36.006Z,12.29
2018-10-17T18:35:06.187Z,12.23
2018-10-17T18:37:35.437Z,12.12
2018-10-17T18:40:05.170Z,12.10
2018-10-17T18:42:34.306Z,12.00
2018-10-17T18:45:03.780Z,12.04
2018-10-17T18:47:32.947Z,11.99
2018-10-17T18:50:02.243Z,11.93
2018-10-17T18:52:31.462Z,11.92
2018-10-17T18:55:00.690Z,11.87
2018-10-17T18:57:29.864Z,11.85
2018-10-17T18:59:59.109Z,11.85
2018-10-17T19:02:28.293Z,11.85
2018-10-17T19:04:57.481Z,11.79
2018-10-17T19:07:26.659Z,11.73
2018-10-17T19:09:55.874Z,11.62
2018-10-17T19:12:25.026Z,11.57
2018-10-17T19:14:54.196Z,11.50
2018-10-17T19:17:23.369Z,11.44
2018-10-17T19:19:52.614Z,11.42
2018-10-17T19:22:21.794Z,11.39
2018-10-17T19:24:51.169Z,11.39
2018-10-17T19:27:20.176Z,11.35
2018-10-17T19:29:50.924Z,11.32
2018-10-17T19:32:20.251Z,11.30
2018-10-17T19:34:49.668Z,11.23
2018-10-17T19:37:19.157Z,11.15
2018-10-17T19:39:48.699Z,11.13
2018-10-17T19:42:18.577Z,11.04
2018-10-17T19:44:47.775Z,10.98
2018-10-17T19:47:17.032Z,10.91
2018-10-17T19:49:46.206Z,10.93
2018-10-17T19:52:15.379Z,10.96
2018-10-17T19:54:44.511Z,10.97
2018-10-17T19:57:14.213Z,10.98
2018-10-17T19:59:43.538Z,10.94
2018-10-17T20:02:12.723Z,10.93
2018-10-17T20:04:41.967Z,10.92
2018-10-17T20:07:11.131Z,10.88
2018-10-17T20:09:40.300Z,10.84
2018-10-17T20:12:09.517Z,10.85
2018-10-17T20:14:38.737Z,10.81
2018-10-17T20:17:08.205Z,10.80
2018-10-17T20:19:37.360Z,10.82
2018-10-17T20:22:09.156Z,10.86
2018-10-17T20:24:39.640Z,10.84
2018-10-17T20:27:09.773Z,10.83
2018-10-17T20:29:39.327Z,10.80
2018-10-17T20:32:09.513Z,10.83
2018-10-17T20:34:38.962Z,10.80
2018-10-17T20:37:08.404Z,10.78
2018-10-17T20:39:37.579Z,10.77
2018-10-17T20:42:07.133Z,10.71
2018-10-17T20:44:36.352Z,10.67
2018-10-17T20:47:06.036Z,10.67
2018-10-17T20:49:35.215Z,10.66
2018-10-17T20:52:04.525Z,10.55
2018-10-17T20:54:33.790Z,10.52
2018-10-17T20:57:02.986Z,10.50
2018-10-17T20:59:32.154Z,10.44
2018-10-17T21:02:01.490Z,10.42
2018-10-17T21:04:30.504Z,10.38
2018-10-17T21:06:59.701Z,10.36
2018-10-17T21:09:28.867Z,10.25
2018-10-17T21:11:58.008Z,10.21
2018-10-17T21:14:27.206Z,10.14
2018-10-17T21:16:56.359Z,10.14
2018-10-17T21:19:25.526Z,10.05
2018-10-17T21:21:54.712Z,10.06
2018-10-17T21:24:23.922Z,10.03
2018-10-17T21:26:53.443Z,9.96
2018-10-17T21:29:22.580Z,9.91
2018-10-17T21:31:51.806Z,9.92
2018-10-17T21:34:20.911Z,9.90
2018-10-17T21:36:50.159Z,9.89
2018-10-17T21:39:19.322Z,9.87
2018-10-17T21:41:48.523Z,9.84
2018-10-17T21:44:17.684Z,9.81
2018-10-17T21:46:46.866Z,9.75
2018-10-17T21:49:15.986Z,9.71
2018-10-17T21:51:45.175Z,9.70
2018-10-17T21:54:14.334Z,9.67
2018-10-17T21:56:43.875Z,9.65
2018-10-17T21:59:13.052Z,9.63
2018-10-17T22:01:42.286Z,9.62
2018-10-17T22:04:11.426Z,9.57
2018-10-17T22:06:40.622Z,9.49
2018-10-17T22:09:10.601Z,9.34
2018-10-17T22:11:39.849Z,9.34
2018-10-17T22:14:09.108Z,9.30
2018-10-17T22:16:43.419Z,9.30
2018-10-17T22:19:12.949Z,9.30
2018-10-17T22:21:41.757Z,9.29
2018-10-17T22:24:11.026Z,9.26
2018-10-17T22:26:40.178Z,9.25
2018-10-17T22:29:09.445Z,9.27
2018-10-17T22:31:38.611Z,9.28
2018-10-17T22:34:07.831Z,9.30
2018-10-17T22:36:37.014Z,9.29
2018-10-17T22:39:09.685Z,9.25
2018-10-17T22:41:39.392Z,9.23
2018-10-17T22:44:08.677Z,9.23
2018-10-17T22:46:37.794Z,9.20
2018-10-17T22:49:07.961Z,9.15
2018-10-17T22:51:37.631Z,9.13
2018-10-17T22:54:07.446Z,9.06
2018-10-17T22:56:37.170Z,8.90
2018-10-17T22:59:06.674Z,8.79
2018-10-17T23:01:36.499Z,8.78
2018-10-17T23:04:07.009Z,8.73
2018-10-17T23:06:36.204Z,8.79
2018-10-17T23:09:09.512Z,8.82
2018-10-17T23:11:39.764Z,8.86
2018-10-17T23:14:09.666Z,8.87
2018-10-17T23:16:38.893Z,8.86
2018-10-17T23:19:08.780Z,8.86
2018-10-17T23:21:37.987Z,8.78
2018-10-17T23:24:07.208Z,8.76
2018-10-17T23:26:36.345Z,8.76
2018-10-17T23:29:05.981Z,8.76
2018-10-17T23:31:35.145Z,8.76
2018-10-17T23:34:04.314Z,8.74
2018-10-17T23:36:33.457Z,8.71
2018-10-17T23:39:02.698Z,8.71
2018-10-17T23:41:31.849Z,8.63
2018-10-17T23:44:01.020Z,8.63
2018-10-17T23:46:30.199Z,8.64
2018-10-17T23:48:59.382Z,8.63
2018-10-17T23:51:28.552Z,8.60
2018-10-17T23:53:57.742Z,8.55
2018-10-17T23:56:26.917Z,8.58
2018-10-17T23:58:56.066Z,8.51
